createdAt,value
2024-03-26T00:00:41.309Z,9.20
2024-03-26T00:03:29.318Z,8.80
2024-03-26T00:05:57.897Z,9.00
2024-03-26T00:08:27.915Z,8.70
2024-03-26T00:10:57.833Z,8.50
2024-03-26T00:13:26.922Z,8.50
2024-03-26T00:15:54.692Z,8.60
2024-03-26T00:18:22.360Z,8.80
2024-03-26T00:20:51.345Z,9.20
2024-03-26T00:23:19.010Z,9.10
2024-03-26T00:25:46.675Z,7.90
2024-03-26T00:28:16.894Z,9.30
2024-03-26T00:30:44.768Z,8.40
2024-03-26T00:33:14.778Z,8.70
2024-03-26T00:35:42.508Z,8.80
2024-03-26T00:38:10.616Z,8.90
2024-03-26T00:40:40.430Z,9.30
2024-03-26T00:43:08.196Z,8.90
2024-03-26T00:45:38.211Z,9.40
2024-03-26T00:48:06.594Z,8.80
2024-03-26T00:50:34.355Z,8.60
2024-03-26T00:53:03.885Z,8.40
2024-03-26T00:55:31.832Z,8.90
2024-03-26T00:57:59.701Z,9.70
2024-03-26T01:00:28.693Z,8.80
2024-03-26T01:02:56.343Z,8.60
2024-03-26T01:05:24.023Z,9.30
2024-03-26T01:07:53.118Z,9.40
2024-03-26T01:10:21.287Z,9.30
2024-03-26T01:12:51.712Z,9.30
2024-03-26T01:15:19.981Z,9.70
2024-03-26T01:17:50.627Z,10.00
2024-03-26T01:20:18.384Z,8.20
2024-03-26T01:22:48.399Z,8.00
2024-03-26T01:25:16.185Z,8.50
2024-03-26T01:27:46.287Z,8.50
2024-03-26T01:30:14.053Z,9.40
2024-03-26T01:32:43.952Z,8.60
2024-03-26T01:35:11.731Z,8.90
2024-03-26T01:37:39.387Z,8.00
2024-03-26T01:40:13.001Z,8.70
2024-03-26T01:42:40.753Z,8.30
2024-03-26T01:45:10.058Z,8.60
2024-03-26T01:47:39.267Z,7.90
2024-03-26T01:50:12.080Z,8.60
2024-03-26T01:52:40.735Z,8.70
2024-03-26T01:55:10.236Z,9.40
2024-03-26T01:57:38.333Z,8.60
2024-03-26T02:00:08.997Z,8.90
2024-03-26T02:02:45.877Z,8.40
2024-03-26T02:05:13.995Z,6.50
2024-03-26T02:07:45.061Z,5.40
2024-03-26T02:10:14.590Z,5.60
2024-03-26T02:12:43.972Z,5.20
2024-03-26T02:15:11.815Z,5.60
2024-03-26T02:17:41.943Z,5.50
2024-03-26T02:20:11.440Z,6.60
2024-03-26T02:22:40.430Z,6.30
2024-03-26T02:25:08.501Z,6.20
2024-03-26T02:27:36.154Z,5.80
2024-03-26T02:30:05.976Z,6.00
2024-03-26T02:32:33.736Z,5.80
2024-03-26T02:35:03.955Z,6.10
2024-03-26T02:37:31.616Z,6.70
2024-03-26T02:39:59.388Z,5.90
2024-03-26T02:42:28.176Z,5.90
2024-03-26T02:44:55.936Z,5.60
2024-03-26T02:47:26.055Z,6.00
2024-03-26T02:49:53.719Z,6.00
2024-03-26T02:52:21.527Z,6.50
2024-03-26T02:54:50.891Z,5.50
2024-03-26T02:57:18.558Z,5.70
2024-03-26T02:59:46.248Z,6.20
2024-03-26T03:02:15.308Z,6.60
2024-03-26T03:04:43.180Z,7.50
2024-03-26T03:07:10.753Z,7.10
2024-03-26T03:09:40.857Z,7.60
2024-03-26T03:12:08.823Z,11.10
2024-03-26T03:14:38.942Z,12.60
2024-03-26T03:17:06.708Z,10.80
2024-03-26T03:19:34.369Z,16.30
2024-03-26T03:22:03.297Z,19.40
2024-03-26T03:24:30.918Z,18.80
2024-03-26T03:27:01.142Z,16.40
2024-03-26T03:29:28.806Z,13.30
2024-03-26T03:31:56.673Z,12.70
2024-03-26T03:34:25.671Z,11.20
2024-03-26T03:36:53.326Z,10.90
2024-03-26T03:39:20.995Z,9.60
2024-03-26T03:41:49.940Z,9.00
2024-03-26T03:44:17.646Z,8.60
2024-03-26T03:46:45.320Z,9.50
2024-03-26T03:49:14.405Z,8.70
2024-03-26T03:51:42.065Z,7.90
2024-03-26T03:54:09.732Z,9.00
2024-03-26T03:56:38.619Z,7.70
2024-03-26T03:59:07.408Z,8.20
2024-03-26T04:01:37.323Z,8.10
2024-03-26T04:04:05.187Z,7.50
2024-03-26T04:06:33.261Z,7.80
2024-03-26T04:09:02.164Z,6.80
2024-03-26T04:11:29.968Z,8.00
2024-03-26T04:13:58.096Z,7.70
2024-03-26T04:16:26.989Z,7.10
2024-03-26T04:18:55.885Z,7.70
2024-03-26T04:21:26.549Z,7.00
2024-03-26T04:23:54.396Z,6.80
2024-03-26T04:26:24.600Z,7.80
2024-03-26T04:28:52.370Z,7.20
2024-03-26T04:31:20.135Z,7.30
2024-03-26T04:33:49.528Z,7.60
2024-03-26T04:36:17.618Z,7.80
2024-03-26T04:38:47.766Z,7.20
2024-03-26T04:41:17.449Z,7.30
2024-03-26T04:43:46.538Z,7.70
2024-03-26T04:46:27.287Z,7.60
2024-03-26T04:48:55.410Z,8.00
2024-03-26T04:51:23.262Z,8.00
2024-03-26T04:53:50.913Z,7.60
2024-03-26T04:56:20.054Z,7.80
2024-03-26T04:58:47.763Z,7.50
2024-03-26T05:01:15.544Z,7.60
2024-03-26T05:03:44.606Z,7.60
2024-03-26T05:06:12.380Z,8.20
2024-03-26T05:08:40.105Z,7.70
2024-03-26T05:11:09.174Z,6.70
2024-03-26T05:13:37.016Z,6.50
2024-03-26T05:16:06.626Z,6.30
2024-03-26T05:18:36.217Z,6.80
2024-03-26T05:21:04.706Z,6.90
2024-03-26T05:23:34.752Z,7.40
2024-03-26T05:26:02.978Z,6.90
2024-03-26T05:28:33.280Z,6.60
2024-03-26T05:31:21.149Z,6.70
2024-03-26T05:33:51.031Z,6.90
2024-03-26T05:36:19.270Z,6.40
2024-03-26T05:38:48.216Z,7.40
2024-03-26T05:41:16.307Z,6.90
2024-03-26T05:43:43.958Z,7.50
2024-03-26T05:46:12.873Z,6.90
2024-03-26T05:48:40.917Z,6.00
2024-03-26T05:51:08.610Z,6.00
2024-03-26T05:53:37.565Z,6.10
2024-03-26T05:56:08.058Z,6.40
2024-03-26T05:58:38.692Z,7.60
2024-03-26T06:01:06.868Z,6.80
2024-03-26T06:03:34.488Z,6.50
2024-03-26T06:06:02.851Z,7.30
2024-03-26T06:08:30.577Z,6.40
2024-03-26T06:10:58.487Z,6.60
2024-03-26T06:13:27.364Z,6.10
2024-03-26T06:16:06.224Z,9.20
2024-03-26T06:18:35.914Z,10.90
2024-03-26T06:21:05.678Z,9.30
2024-03-26T06:23:33.957Z,10.80
2024-03-26T06:26:01.738Z,10.90
2024-03-26T06:28:29.469Z,12.00
2024-03-26T06:30:58.418Z,12.70
2024-03-26T06:33:27.275Z,10.90
2024-03-26T06:35:57.130Z,12.00
2024-03-26T06:38:24.795Z,11.00
2024-03-26T06:40:54.616Z,12.20
2024-03-26T06:43:24.917Z,11.60
2024-03-26T06:45:52.764Z,11.70
2024-03-26T06:48:20.514Z,11.70
2024-03-26T06:50:49.152Z,11.20
2024-03-26T06:53:16.778Z,11.90
2024-03-26T06:55:46.677Z,11.60
2024-03-26T06:58:15.669Z,11.60
2024-03-26T07:00:46.004Z,10.30
2024-03-26T07:03:13.656Z,11.10
2024-03-26T07:05:41.489Z,10.70
2024-03-26T07:08:10.485Z,10.50
2024-03-26T07:10:38.595Z,9.90
2024-03-26T07:13:15.273Z,9.20
2024-03-26T07:15:45.973Z,9.40
2024-03-26T07:18:15.043Z,9.40
2024-03-26T07:20:42.985Z,9.40
2024-03-26T07:23:11.046Z,10.00
2024-03-26T07:25:39.987Z,8.70
2024-03-26T07:28:07.946Z,9.50
2024-03-26T07:30:38.190Z,9.30
2024-03-26T07:33:06.854Z,9.30
2024-03-26T07:35:37.188Z,8.80
2024-03-26T07:38:05.514Z,9.20
2024-03-26T07:40:36.999Z,8.60
2024-03-26T07:43:13.492Z,8.80
2024-03-26T07:45:50.878Z,8.30
2024-03-26T07:48:21.137Z,8.50
2024-03-26T07:50:51.886Z,9.30
2024-03-26T07:53:19.960Z,8.90
2024-03-26T07:55:52.743Z,7.30
2024-03-26T07:58:20.962Z,8.80
2024-03-26T08:00:51.886Z,7.90
2024-03-26T08:03:20.595Z,8.00
2024-03-26T08:05:54.692Z,7.90
2024-03-26T08:08:23.484Z,9.00
2024-03-26T08:13:26.371Z,7.60
2024-03-26T08:15:55.849Z,8.20
2024-03-26T08:18:26.532Z,7.80
2024-03-26T08:20:54.885Z,7.40
2024-03-26T08:23:24.175Z,8.20
2024-03-26T08:25:56.483Z,8.10
2024-03-26T08:28:28.339Z,7.10
2024-03-26T08:30:57.459Z,7.90
2024-03-26T08:33:25.312Z,8.30
2024-03-26T08:35:56.725Z,6.90
2024-03-26T08:38:27.894Z,7.10
2024-03-26T08:40:57.312Z,7.00
2024-03-26T08:43:28.451Z,6.50
2024-03-26T08:45:57.563Z,7.50
2024-03-26T08:48:27.884Z,8.10
2024-03-26T08:51:00.055Z,7.00
2024-03-26T08:53:30.756Z,6.90
2024-03-26T08:56:08.644Z,7.50
2024-03-26T08:58:44.946Z,6.50
2024-03-26T09:03:44.482Z,6.60
2024-03-26T09:06:13.884Z,8.00
2024-03-26T09:08:42.880Z,6.70
2024-03-26T09:11:11.463Z,7.10
2024-03-26T09:13:43.162Z,7.20
2024-03-26T09:16:12.216Z,7.60
2024-03-26T09:18:42.301Z,6.90
2024-03-26T09:21:11.533Z,6.30
2024-03-26T09:23:40.377Z,6.10
2024-03-26T09:26:12.958Z,7.40
2024-03-26T09:28:42.794Z,7.80
2024-03-26T09:34:57.399Z,6.60
2024-03-26T09:37:26.906Z,6.10
2024-03-26T09:39:55.084Z,5.80
2024-03-26T09:42:26.222Z,6.60
2024-03-26T09:45:02.168Z,6.00
2024-03-26T09:47:39.050Z,6.40
2024-03-26T09:50:08.855Z,6.30
2024-03-26T09:52:39.909Z,6.30
2024-03-26T09:55:11.311Z,6.50
2024-03-26T09:57:40.984Z,6.50
2024-03-26T10:00:10.107Z,5.90
2024-03-26T10:02:41.410Z,5.20
2024-03-26T10:07:48.154Z,6.40
2024-03-26T10:10:17.200Z,6.70
2024-03-26T10:12:46.498Z,5.80
2024-03-26T10:15:15.080Z,5.80
2024-03-26T10:17:44.608Z,5.60
2024-03-26T10:20:13.484Z,6.00
2024-03-26T10:22:42.087Z,4.80
2024-03-26T10:25:11.638Z,5.70
2024-03-26T10:27:41.811Z,5.30
2024-03-26T10:30:10.432Z,5.40
2024-03-26T10:32:40.093Z,5.50
2024-03-26T10:35:12.260Z,5.80
2024-03-26T10:37:42.279Z,6.00
2024-03-26T10:40:20.601Z,5.50
2024-03-26T10:42:54.608Z,4.70
2024-03-26T10:45:37.794Z,5.20
2024-03-26T10:50:47.085Z,6.00
2024-03-26T10:53:21.380Z,5.70
2024-03-26T10:55:54.357Z,4.90
2024-03-26T10:58:22.347Z,6.20
2024-03-26T11:00:53.390Z,5.50
2024-03-26T11:03:23.384Z,5.30
2024-03-26T11:05:52.817Z,5.20
2024-03-26T11:08:21.950Z,5.60
2024-03-26T11:11:03.894Z,4.60
2024-03-26T11:13:35.780Z,5.20
2024-03-26T11:16:09.515Z,4.60
2024-03-26T11:18:40.312Z,5.00
2024-03-26T11:21:10.456Z,5.10
2024-03-26T11:23:44.597Z,5.00
2024-03-26T11:26:26.605Z,4.70
2024-03-26T11:29:00.436Z,4.20
2024-03-26T11:31:30.336Z,4.70
2024-03-26T11:34:05.443Z,4.30
2024-03-26T11:36:37.932Z,4.50
2024-03-26T11:39:08.776Z,4.80
2024-03-26T11:41:38.950Z,3.90
2024-03-26T11:44:09.598Z,4.60
2024-03-26T11:46:38.859Z,4.30
2024-03-26T11:49:09.447Z,4.30
2024-03-26T11:51:41.396Z,3.90
2024-03-26T11:54:13.491Z,3.60
2024-03-26T11:56:43.586Z,3.90
2024-03-26T11:59:15.567Z,4.50
2024-03-26T12:01:45.435Z,4.00
2024-03-26T12:04:15.992Z,3.40
2024-03-26T12:06:45.501Z,3.70
2024-03-26T12:09:15.740Z,3.80
2024-03-26T12:11:44.432Z,2.60
2024-03-26T12:14:15.377Z,3.80
2024-03-26T12:16:44.518Z,2.80
2024-03-26T12:19:16.277Z,2.80
2024-03-26T12:21:46.938Z,3.10
2024-03-26T12:24:18.961Z,2.80
2024-03-26T12:26:47.647Z,3.10
2024-03-26T12:29:16.023Z,2.80
2024-03-26T12:31:44.098Z,2.90
2024-03-26T12:34:14.125Z,2.50
2024-03-26T12:36:45.666Z,2.60
2024-03-26T12:41:41.861Z,2.60
2024-03-26T12:44:16.361Z,2.70
2024-03-26T12:46:48.109Z,3.00
2024-03-26T12:49:21.650Z,2.70
2024-03-26T12:51:58.747Z,2.50
2024-03-26T12:54:29.687Z,2.00
2024-03-26T12:57:00.451Z,2.80
2024-03-26T12:59:31.435Z,2.50
2024-03-26T13:02:02.709Z,2.10
2024-03-26T13:04:33.022Z,2.00
2024-03-26T13:07:02.313Z,3.10
2024-03-26T13:09:31.725Z,2.60
2024-03-26T13:12:02.442Z,2.30
2024-03-26T13:14:33.407Z,2.30
2024-03-26T13:17:04.979Z,2.60
2024-03-26T13:19:35.884Z,2.30
2024-03-26T13:22:08.623Z,2.30
2024-03-26T13:24:39.591Z,2.10
2024-03-26T13:27:11.858Z,2.10
2024-03-26T13:29:42.723Z,2.00
2024-03-26T13:32:11.704Z,1.90
2024-03-26T13:34:41.990Z,2.00
2024-03-26T13:37:11.582Z,2.10
2024-03-26T13:39:45.053Z,1.90
2024-03-26T13:42:15.390Z,2.40
2024-03-26T13:44:49.678Z,2.30
2024-03-26T13:47:19.234Z,1.70
2024-03-26T13:49:50.675Z,1.80
2024-03-26T13:52:20.476Z,1.60
2024-03-26T13:54:52.749Z,1.80
2024-03-26T13:57:24.936Z,1.90
2024-03-26T13:59:56.404Z,1.90
2024-03-26T14:02:25.854Z,1.30
2024-03-26T14:04:55.808Z,2.10
2024-03-26T14:07:23.571Z,2.00
2024-03-26T14:09:53.689Z,1.40
2024-03-26T14:12:21.358Z,1.70
2024-03-26T14:14:49.122Z,1.80
2024-03-26T14:17:18.021Z,1.80
2024-03-26T14:19:46.709Z,1.60
2024-03-26T14:22:17.434Z,1.70
2024-03-26T14:24:45.094Z,1.90
2024-03-26T14:27:15.136Z,2.30
2024-03-26T14:29:42.827Z,1.40
2024-03-26T14:32:14.943Z,1.80
2024-03-26T14:34:42.606Z,1.30
2024-03-26T14:37:11.599Z,1.60
2024-03-26T14:39:39.472Z,2.00
2024-03-26T14:42:07.161Z,1.60
2024-03-26T14:44:36.326Z,1.90
2024-03-26T14:47:03.989Z,1.80
2024-03-26T14:49:31.755Z,1.90
2024-03-26T14:52:01.214Z,1.50
2024-03-26T14:54:28.921Z,1.80
2024-03-26T14:56:59.146Z,1.40
2024-03-26T14:59:26.814Z,1.50
2024-03-26T15:01:57.340Z,1.90
2024-03-26T15:04:25.130Z,1.50
2024-03-26T15:06:52.880Z,2.00
2024-03-26T15:09:21.142Z,2.10
2024-03-26T15:11:49.572Z,1.70
2024-03-26T15:14:20.561Z,1.80
2024-03-26T15:16:49.344Z,1.30
2024-03-26T15:19:18.349Z,1.50
2024-03-26T15:21:46.054Z,1.70
2024-03-26T15:24:13.751Z,1.40
2024-03-26T15:27:01.827Z,1.60
2024-03-26T15:29:49.443Z,2.00
2024-03-26T15:32:20.890Z,1.40
2024-03-26T15:34:50.358Z,1.50
2024-03-26T15:37:20.215Z,1.50
2024-03-26T15:39:47.986Z,1.90
2024-03-26T15:42:19.089Z,1.50
2024-03-26T15:44:46.786Z,1.40
2024-03-26T15:47:15.778Z,1.00
2024-03-26T15:49:43.491Z,1.50
2024-03-26T15:52:12.029Z,1.50
2024-03-26T15:54:41.024Z,1.70
2024-03-26T15:57:09.633Z,1.30
2024-03-26T15:59:40.252Z,1.80
2024-03-26T16:02:09.910Z,1.20
2024-03-26T16:04:39.565Z,1.80
2024-03-26T16:07:07.525Z,1.60
2024-03-26T16:09:35.393Z,1.40
2024-03-26T16:12:05.324Z,1.50
2024-03-26T16:14:33.279Z,1.70
2024-03-26T16:17:03.660Z,1.50
2024-03-26T16:19:31.426Z,1.60
2024-03-26T16:21:59.134Z,1.50
2024-03-26T16:24:28.326Z,1.20
2024-03-26T16:26:56.099Z,1.20
2024-03-26T16:29:25.630Z,1.20
2024-03-26T16:31:54.511Z,1.60
2024-03-26T16:34:22.251Z,1.70
2024-03-26T16:36:50.019Z,1.40
2024-03-26T16:39:19.447Z,1.30
2024-03-26T16:41:47.813Z,1.50
2024-03-26T16:44:18.645Z,1.60
2024-03-26T16:46:46.408Z,1.60
2024-03-26T16:49:16.525Z,1.80
2024-03-26T16:51:44.184Z,1.40
2024-03-26T16:54:11.850Z,1.40
2024-03-26T16:56:40.837Z,1.20
2024-03-26T16:59:09.119Z,1.50
2024-03-26T17:01:36.877Z,1.40
2024-03-26T17:04:07.110Z,1.10
2024-03-26T17:06:34.823Z,1.10
2024-03-26T17:09:08.062Z,1.40
2024-03-26T17:11:38.909Z,1.40
2024-03-26T17:14:08.360Z,1.40
2024-03-26T17:16:59.298Z,1.60
2024-03-26T17:19:27.502Z,1.50
2024-03-26T17:21:55.555Z,1.80
2024-03-26T17:24:25.887Z,1.80
2024-03-26T17:26:53.773Z,1.90
2024-03-26T17:29:24.494Z,2.00
2024-03-26T17:31:52.244Z,2.10
2024-03-26T17:34:22.468Z,2.00
2024-03-26T17:36:50.350Z,1.80
2024-03-26T17:39:18.110Z,1.40
2024-03-26T17:41:47.199Z,1.60
2024-03-26T17:44:15.257Z,1.90
2024-03-26T17:46:43.252Z,1.90
2024-03-26T17:49:12.285Z,2.10
2024-03-26T17:51:40.673Z,2.20
2024-03-26T17:54:10.733Z,1.90
2024-03-26T17:56:39.156Z,1.70
2024-03-26T17:59:08.320Z,1.90
2024-03-26T18:01:36.388Z,1.80
2024-03-26T18:04:04.860Z,1.50
2024-03-26T18:06:33.857Z,1.50
2024-03-26T18:09:01.721Z,1.50
2024-03-26T18:11:29.724Z,1.20
2024-03-26T18:13:58.072Z,1.60
2024-03-26T18:16:25.943Z,1.60
2024-03-26T18:18:56.286Z,2.70
2024-03-26T18:21:26.223Z,2.00
2024-03-26T18:23:57.513Z,1.80
2024-03-26T18:26:26.152Z,2.10
2024-03-26T18:28:56.041Z,2.00
2024-03-26T18:31:25.129Z,2.00
2024-03-26T18:33:55.176Z,1.90
2024-03-26T18:36:23.836Z,1.90
2024-03-26T18:38:53.434Z,1.90
2024-03-26T18:41:22.022Z,2.00
2024-03-26T18:43:53.488Z,2.10
2024-03-26T18:46:26.799Z,1.60
2024-03-26T18:48:59.153Z,1.80
2024-03-26T18:51:28.351Z,2.20
2024-03-26T18:54:00.736Z,1.80
2024-03-26T19:03:57.614Z,1.70
2024-03-26T19:06:25.376Z,1.90
2024-03-26T19:08:55.921Z,1.90
2024-03-26T19:11:24.072Z,2.30
2024-03-26T19:13:54.508Z,2.20
2024-03-26T19:16:22.164Z,2.10
2024-03-26T19:18:50.211Z,1.90
2024-03-26T19:21:20.671Z,1.90
2024-03-26T19:23:49.350Z,1.80
2024-03-26T19:26:20.425Z,2.10
2024-03-26T19:28:49.073Z,2.20
2024-03-26T19:31:18.584Z,3.10
2024-03-26T19:33:46.348Z,2.40
2024-03-26T19:36:17.356Z,2.10
2024-03-26T19:38:46.381Z,2.30
2024-03-26T19:41:15.990Z,2.50
2024-03-26T19:43:46.111Z,2.40
2024-03-26T19:46:15.015Z,2.00
2024-03-26T19:48:45.503Z,2.20
2024-03-26T19:51:14.115Z,2.00
2024-03-26T19:53:44.142Z,2.40
2024-03-26T19:56:15.893Z,2.20
2024-03-26T19:58:44.901Z,2.60
2024-03-26T20:01:13.000Z,2.10
2024-03-26T20:03:44.235Z,2.10
2024-03-26T20:06:13.077Z,2.40
2024-03-26T20:08:44.588Z,2.50
2024-03-26T20:16:20.948Z,2.60
2024-03-26T20:18:50.350Z,2.70
2024-03-26T20:21:18.229Z,2.50
2024-03-26T20:23:47.423Z,2.50
2024-03-26T20:26:15.387Z,2.20
2024-03-26T20:28:43.146Z,2.60
2024-03-26T20:31:14.608Z,2.10
2024-03-26T20:33:43.184Z,2.70
2024-03-26T20:36:17.719Z,2.50
2024-03-26T20:38:49.157Z,2.50
2024-03-26T20:41:16.933Z,2.50
2024-03-26T20:43:45.306Z,2.30
2024-03-26T20:46:13.379Z,2.40
2024-03-26T20:48:41.173Z,2.60
2024-03-26T20:51:12.155Z,2.80
2024-03-26T20:53:41.313Z,2.60
2024-03-26T20:56:10.378Z,2.30
2024-03-26T20:58:38.860Z,2.30
2024-03-26T21:01:16.980Z,2.30
2024-03-26T21:03:47.605Z,2.50
2024-03-26T21:06:16.511Z,2.40
2024-03-26T21:08:45.789Z,3.10
2024-03-26T21:11:14.278Z,2.30
2024-03-26T21:13:44.291Z,2.20
2024-03-26T21:16:14.106Z,2.10
2024-03-26T21:18:49.133Z,2.60
2024-03-26T21:21:21.259Z,2.30
2024-03-26T21:23:49.715Z,2.20
2024-03-26T21:26:19.260Z,2.30
2024-03-26T21:28:47.662Z,1.90
2024-03-26T21:31:18.220Z,2.50
2024-03-26T21:33:46.608Z,2.70
2024-03-26T21:36:16.598Z,2.70
2024-03-26T21:38:44.674Z,2.20
2024-03-26T21:41:16.191Z,2.00
2024-03-26T21:43:44.191Z,2.20
2024-03-26T21:46:13.186Z,2.70
2024-03-26T21:48:42.390Z,2.20
2024-03-26T21:51:12.623Z,2.20
2024-03-26T21:53:41.438Z,2.40
2024-03-26T21:56:12.441Z,2.30
2024-03-26T21:58:40.959Z,2.10
2024-03-26T22:01:11.727Z,2.00
2024-03-26T22:03:40.042Z,2.10
2024-03-26T22:06:13.220Z,2.20
2024-03-26T22:08:42.638Z,2.40
2024-03-26T22:11:14.659Z,2.40
2024-03-26T22:13:42.567Z,2.40
2024-03-26T22:16:11.799Z,1.80
2024-03-26T22:18:39.738Z,2.40
2024-03-26T22:21:07.483Z,2.00
2024-03-26T22:23:36.791Z,2.50
2024-03-26T22:26:09.499Z,2.50
2024-03-26T22:28:39.288Z,2.30
2024-03-26T22:31:07.362Z,2.50
2024-03-26T22:33:38.305Z,2.00
2024-03-26T22:36:10.227Z,1.90
2024-03-26T22:38:39.416Z,2.50
2024-03-26T22:41:08.314Z,2.30
2024-03-26T22:43:41.134Z,2.50
2024-03-26T22:46:10.729Z,2.30
2024-03-26T22:48:41.804Z,2.60
2024-03-26T22:51:10.066Z,2.80
2024-03-26T22:53:39.257Z,2.30
2024-03-26T22:56:08.001Z,2.40
2024-03-26T22:58:37.241Z,2.30
2024-03-26T23:01:08.581Z,2.40
2024-03-26T23:06:06.181Z,2.30
2024-03-26T23:08:37.116Z,2.30
2024-03-26T23:11:05.102Z,2.60
2024-03-26T23:13:36.221Z,2.80
2024-03-26T23:16:04.699Z,2.60
2024-03-26T23:18:33.696Z,2.90
2024-03-26T23:21:01.462Z,2.50
2024-03-26T23:23:29.433Z,2.00
2024-03-26T23:25:58.730Z,2.30
2024-03-26T23:28:26.504Z,2.60
2024-03-26T23:30:54.461Z,3.00
2024-03-26T23:33:23.982Z,2.70
2024-03-26T23:35:51.851Z,2.60
2024-03-26T23:38:21.959Z,2.80
2024-03-26T23:40:50.444Z,2.30
2024-03-26T23:43:22.408Z,2.70
2024-03-26T23:45:50.274Z,2.30
2024-03-26T23:48:19.201Z,2.50
2024-03-26T23:50:47.022Z,2.30
2024-03-26T23:53:17.046Z,2.60
2024-03-26T23:55:45.339Z,2.40
2024-03-26T23:58:15.528Z,2.70
